Time;durP1;ratioP1;P1;durP2;ratioP2;P2;SDS_P1;SDS_P2;PMS_P1;PMS_P2;Temp;Humidity;BMP_temperature;BMP_pressure;BME280_temperature;BME280_humidity;BME280_pressure;Samples;Min_cycle;Max_cycle;Signal;HPM_P1;HPM_P2
2023/06/15 03:01:45;;;;;;;2.30;2.10;;;23.90;38.30;;;;;;5373980;23;45865;-86
2023/06/15 03:04:14;;;;;;;3.03;2.03;;;23.90;38.20;;;;;;4900110;28;45511;-86
2023/06/15 03:06:41;;;;;;;3.00;2.17;;;23.90;38.10;;;;;;4907854;28;45142;-84
2023/06/15 03:09:07;;;;;;;3.28;2.30;;;23.90;38.10;;;;;;4914921;28;44680;-85
2023/06/15 03:11:32;;;;;;;2.97;2.25;;;23.90;38.00;;;;;;4893124;28;47023;-85
2023/06/15 03:13:58;;;;;;;3.28;2.20;;;24.00;38.20;;;;;;4914546;28;45038;-86
2023/06/15 03:16:26;;;;;;;2.40;2.20;;;23.90;38.10;;;;;;4900702;28;45259;-91
2023/06/15 03:18:53;;;;;;;2.85;1.95;;;23.90;38.10;;;;;;4918372;28;45376;-86
2023/06/15 03:21:22;;;;;;;3.13;1.98;;;23.90;38.10;;;;;;4912065;28;45934;-84
2023/06/15 03:23:49;;;;;;;2.97;2.20;;;23.90;38.20;;;;;;4933546;28;46068;-85
2023/06/15 03:26:16;;;;;;;5.50;2.50;;;23.90;38.20;;;;;;4864073;28;45329;-86
2023/06/15 03:28:42;;;;;;;2.80;2.03;;;23.90;38.20;;;;;;4911991;28;45305;-85
2023/06/15 03:31:08;;;;;;;2.10;1.90;;;23.90;38.20;;;;;;4892308;28;47248;-86
2023/06/15 03:33:36;;;;;;;4.03;2.08;;;23.90;38.30;;;;;;4925559;28;45217;-85
2023/06/15 03:36:03;;;;;;;4.18;1.83;;;23.90;38.30;;;;;;4917083;28;45275;-85
2023/06/15 03:38:28;;;;;;;3.03;1.77;;;23.90;38.30;;;;;;4920270;28;45248;-86
2023/06/15 03:40:54;;;;;;;3.25;2.28;;;23.80;38.20;;;;;;4919489;28;47174;-84
2023/06/15 03:43:19;;;;;;;5.90;2.22;;;23.90;38.30;;;;;;4943379;28;45032;-86
2023/06/15 03:45:45;;;;;;;4.60;2.47;;;23.90;38.30;;;;;;4910007;28;45639;-84
2023/06/15 03:48:10;;;;;;;5.05;2.30;;;23.80;38.30;;;;;;4905486;28;45229;-86
2023/06/15 03:50:36;;;;;;;3.08;1.98;;;23.80;38.40;;;;;;4875134;28;46986;-86
2023/06/15 03:53:02;;;;;;;2.35;2.15;;;23.80;38.40;;;;;;4910255;28;45477;-84
2023/06/15 03:55:28;;;;;;;2.78;2.30;;;23.80;38.50;;;;;;4932048;28;45329;-83
2023/06/15 03:57:54;;;;;;;2.35;2.03;;;23.80;38.60;;;;;;4924195;28;44773;-85
2023/06/15 04:00:20;;;;;;;3.03;2.20;;;23.80;38.50;;;;;;4909229;28;45328;-82
2023/06/15 04:02:45;;;;;;;2.55;2.00;;;23.80;38.50;;;;;;4918460;28;45409;-84
2023/06/15 04:05:11;;;;;;;2.78;2.10;;;23.80;38.50;;;;;;4905322;28;45289;-84
2023/06/15 04:07:36;;;;;;;2.75;2.20;;;23.80;38.40;;;;;;4928564;28;45276;-83
2023/06/15 04:10:04;;;;;;;2.30;2.00;;;23.80;38.40;;;;;;4913533;28;47065;-82
2023/06/15 04:12:29;;;;;;;4.05;2.00;;;23.80;38.40;;;;;;4905205;28;45253;-85
2023/06/15 04:14:55;;;;;;;3.78;2.00;;;23.90;38.40;;;;;;4894932;28;45623;-84
2023/06/15 04:17:20;;;;;;;3.22;2.05;;;23.80;38.40;;;;;;4898469;28;44819;-85
2023/06/15 04:19:46;;;;;;;3.22;2.08;;;23.80;38.50;;;;;;4899661;28;47335;-83
2023/06/15 04:22:12;;;;;;;2.00;1.70;;;23.80;39.30;;;;;;4901639;28;44908;-85
2023/06/15 04:24:37;;;;;;;2.35;1.92;;;23.80;38.70;;;;;;4910648;28;44804;-83
2023/06/15 04:27:03;;;;;;;2.58;2.15;;;23.80;38.70;;;;;;4885647;28;45370;-84
2023/06/15 04:29:30;;;;;;;3.70;2.20;;;23.80;38.70;;;;;;4932803;28;45620;-83
2023/06/15 04:31:57;;;;;;;2.50;2.08;;;23.80;38.70;;;;;;4902068;28;45247;-81
2023/06/15 04:34:24;;;;;;;5.05;2.35;;;23.80;38.80;;;;;;4919959;28;45239;-83
2023/06/15 04:36:50;;;;;;;2.70;2.50;;;23.80;38.80;;;;;;4879192;28;45334;-84
2023/06/15 04:39:15;;;;;;;5.05;2.47;;;23.70;38.90;;;;;;4908138;28;46557;-84
2023/06/15 04:41:42;;;;;;;2.80;2.50;;;23.70;38.80;;;;;;4895464;28;45190;-85
2023/06/15 04:44:07;;;;;;;4.18;2.35;;;23.70;39.00;;;;;;4927206;28;45556;-83
2023/06/15 04:46:36;;;;;;;3.42;2.25;;;23.70;39.10;;;;;;4894763;28;44809;-84
2023/06/15 04:49:03;;;;;;;2.38;2.13;;;23.60;39.10;;;;;;4904809;28;46741;-84
2023/06/15 04:51:29;;;;;;;3.03;2.50;;;23.70;39.20;;;;;;4901691;28;45427;-83
2023/06/15 04:53:56;;;;;;;2.40;2.20;;;23.70;39.20;;;;;;4882257;28;45260;-84
2023/06/15 04:56:22;;;;;;;4.65;2.15;;;23.60;39.30;;;;;;4915146;28;45189;-84
2023/06/15 04:58:48;;;;;;;2.65;2.40;;;23.60;39.30;;;;;;4913405;28;46135;-83
2023/06/15 05:01:14;;;;;;;3.63;2.47;;;23.60;39.30;;;;;;4873893;28;45475;-85
2023/06/15 05:03:40;;;;;;;2.30;2.10;;;23.60;39.40;;;;;;4923385;28;45289;-85
2023/06/15 05:06:05;;;;;;;2.88;2.00;;;23.60;39.40;;;;;;4882005;28;45178;-84
2023/06/15 05:08:33;;;;;;;2.10;1.90;;;23.60;39.50;;;;;;4873589;28;47247;-81
2023/06/15 05:10:58;;;;;;;2.47;2.28;;;23.60;39.40;;;;;;4934637;28;45438;-84
2023/06/15 05:13:24;;;;;;;2.38;2.15;;;23.60;39.50;;;;;;4930649;28;45326;-83
2023/06/15 05:15:50;;;;;;;2.55;1.98;;;23.60;39.50;;;;;;4875318;28;45259;-83
2023/06/15 05:18:16;;;;;;;2.00;1.80;;;23.70;39.50;;;;;;4867783;28;47341;-82
2023/06/15 05:20:41;;;;;;;2.00;1.70;;;23.70;39.40;;;;;;4882231;28;44871;-84
2023/06/15 05:23:07;;;;;;;2.97;2.00;;;23.70;39.40;;;;;;4913640;28;44715;-84
2023/06/15 05:25:33;;;;;;;3.15;2.22;;;23.70;39.40;;;;;;4912988;28;45563;-83
2023/06/15 05:27:58;;;;;;;3.83;2.05;;;23.80;39.40;;;;;;4928671;28;46595;-83
2023/06/15 05:30:26;;;;;;;2.90;2.08;;;23.80;39.40;;;;;;4915850;28;45342;-82
2023/06/15 05:32:53;;;;;;;3.63;2.40;;;23.70;39.40;;;;;;4907096;28;45164;-84
2023/06/15 05:35:18;;;;;;;3.15;2.10;;;23.80;39.50;;;;;;4912938;28;45372;-83
2023/06/15 05:37:44;;;;;;;2.70;2.40;;;23.80;39.60;;;;;;4886953;28;46801;-85
2023/06/15 05:40:10;;;;;;;3.10;2.63;;;23.80;39.50;;;;;;4904767;28;45240;-85
2023/06/15 05:42:36;;;;;;;2.80;2.42;;;23.80;39.50;;;;;;4917679;28;45133;-83
2023/06/15 05:45:02;;;;;;;2.38;2.17;;;23.80;39.50;;;;;;4909186;28;45517;-85
2023/06/15 05:47:27;;;;;;;3.10;2.40;;;23.80;39.50;;;;;;4893066;28;46812;-83
2023/06/15 05:49:53;;;;;;;3.15;2.35;;;23.80;39.60;;;;;;4881238;28;45581;-83
2023/06/15 05:52:21;;;;;;;3.47;2.30;;;23.80;39.70;;;;;;4917169;28;44774;-83
2023/06/15 05:54:47;;;;;;;2.72;2.20;;;23.70;39.90;;;;;;4913212;28;44913;-85
2023/06/15 05:57:13;;;;;;;4.72;2.60;;;23.70;39.80;;;;;;4867730;28;47414;-84
2023/06/15 05:59:38;;;;;;;5.57;2.63;;;23.70;39.80;;;;;;4909552;28;44662;-83
2023/06/15 06:02:04;;;;;;;2.50;2.25;;;23.70;40.40;;;;;;4888952;28;45388;-84
2023/06/15 06:04:30;;;;;;;2.58;2.38;;;23.70;39.90;;;;;;4922230;28;45639;-84
2023/06/15 06:06:55;;;;;;;4.63;2.78;;;23.70;39.80;;;;;;4903682;28;48133;-85
2023/06/15 06:09:21;;;;;;;6.28;2.40;;;23.70;39.90;;;;;;4934759;28;44889;-84
2023/06/15 06:11:49;;;;;;;2.95;2.50;;;23.70;39.90;;;;;;4877569;28;45047;-83
2023/06/15 06:14:15;;;;;;;3.35;2.90;;;23.80;40.00;;;;;;4927177;28;45396;-84
2023/06/15 06:16:42;;;;;;;4.22;2.70;;;23.70;40.00;;;;;;4903983;28;45710;-84
2023/06/15 06:19:07;;;;;;;3.10;2.80;;;23.80;39.90;;;;;;4920928;28;45317;-85
2023/06/15 06:21:33;;;;;;;5.90;3.08;;;23.70;39.90;;;;;;4934593;28;45387;-86
2023/06/15 06:23:59;;;;;;;5.15;2.65;;;23.70;39.90;;;;;;4912066;28;45527;-84
2023/06/15 06:26:25;;;;;;;3.72;2.50;;;23.80;40.00;;;;;;4915563;28;45421;-85
2023/06/15 06:28:52;;;;;;;4.45;2.35;;;23.80;40.00;;;;;;4909809;28;45097;-85
2023/06/15 06:31:17;;;;;;;3.72;2.70;;;23.80;39.80;;;;;;4896221;28;45098;-86
2023/06/15 06:33:43;;;;;;;3.40;2.70;;;23.90;39.90;;;;;;4887605;28;45310;-84
2023/06/15 06:36:08;;;;;;;4.90;2.67;;;23.90;39.80;;;;;;4919303;28;46116;-82
2023/06/15 06:38:35;;;;;;;4.47;2.92;;;24.00;39.70;;;;;;4937148;28;45404;-84
2023/06/15 06:41:00;;;;;;;3.78;2.72;;;24.00;39.60;;;;;;4862571;28;44754;-85
2023/06/15 06:43:26;;;;;;;4.68;2.80;;;24.10;39.60;;;;;;4923386;28;45551;-86
2023/06/15 06:45:52;;;;;;;4.25;2.65;;;24.10;39.40;;;;;;4891748;28;46997;-84
2023/06/15 06:48:17;;;;;;;4.20;2.75;;;24.10;39.30;;;;;;4901177;28;45449;-85
2023/06/15 06:50:43;;;;;;;2.75;2.33;;;24.10;39.30;;;;;;4872655;28;44792;-85
2023/06/15 06:53:09;;;;;;;3.85;3.45;;;24.10;39.40;;;;;;4912667;28;44989;-84
2023/06/15 06:55:35;;;;;;;3.58;3.25;;;24.10;39.30;;;;;;4916439;28;46936;-85
2023/06/15 06:58:01;;;;;;;6.10;4.40;;;24.20;39.20;;;;;;4893342;28;45125;-84
2023/06/15 07:00:28;;;;;;;7.30;3.92;;;24.20;39.30;;;;;;4900554;28;44765;-83
2023/06/15 07:02:54;;;;;;;8.18;4.30;;;24.20;39.20;;;;;;4920052;28;44710;-83
2023/06/15 07:05:19;;;;;;;12.75;6.25;;;24.20;39.20;;;;;;4910758;28;46596;-84
2023/06/15 07:07:45;;;;;;;6.25;5.38;;;24.20;39.20;;;;;;4920023;28;45550;-84
2023/06/15 07:10:10;;;;;;;7.45;4.82;;;24.30;39.10;;;;;;4921834;28;45176;-83
2023/06/15 07:12:36;;;;;;;7.20;5.00;;;24.30;39.00;;;;;;4907337;28;45216;-84
2023/06/15 07:15:03;;;;;;;6.13;4.90;;;24.30;38.90;;;;;;4910437;28;45297;-82
2023/06/15 07:17:28;;;;;;;5.88;4.03;;;24.30;38.90;;;;;;4875402;28;45457;-84
2023/06/15 07:19:54;;;;;;;7.50;4.90;;;24.30;39.00;;;;;;4892956;28;45008;-83
2023/06/15 07:22:20;;;;;;;5.55;4.30;;;24.30;38.90;;;;;;4914356;28;45221;-82
2023/06/15 07:24:45;;;;;;;6.07;4.50;;;24.40;38.90;;;;;;4891040;28;46549;-83
2023/06/15 07:27:11;;;;;;;7.05;4.78;;;24.40;38.80;;;;;;4913907;28;44846;-82
2023/06/15 07:29:36;;;;;;;6.05;4.68;;;24.50;38.80;;;;;;4893778;28;45189;-83
2023/06/15 07:32:02;;;;;;;8.82;5.57;;;24.50;38.70;;;;;;4873547;28;45255;-84
2023/06/15 07:34:28;;;;;;;5.72;4.10;;;24.50;38.60;;;;;;4926346;28;46965;-82
2023/06/15 07:36:53;;;;;;;9.00;4.47;;;24.60;38.60;;;;;;4905243;28;45866;-82
2023/06/15 07:39:19;;;;;;;5.03;4.50;;;24.70;38.60;;;;;;4935844;28;44699;-83
2023/06/15 07:41:44;;;;;;;6.20;4.18;;;24.70;38.60;;;;;;4899788;28;45562;-83
2023/06/15 07:44:12;;;;;;;7.88;4.88;;;24.70;38.60;;;;;;4906111;28;45149;-82
2023/06/15 07:46:38;;;;;;;6.85;4.47;;;24.80;38.70;;;;;;4879702;28;45317;-85
2023/06/15 07:49:04;;;;;;;7.18;5.03;;;24.80;38.60;;;;;;4909320;28;45271;-83
2023/06/15 07:51:30;;;;;;;9.90;4.65;;;24.80;38.50;;;;;;4903749;28;45251;-83
2023/06/15 07:53:55;;;;;;;6.53;4.57;;;24.80;38.50;;;;;;4891801;28;46830;-81
2023/06/15 07:56:21;;;;;;;6.00;4.57;;;24.80;38.40;;;;;;4891072;28;45369;-84
2023/06/15 07:58:46;;;;;;;7.40;4.40;;;24.80;38.40;;;;;;4920384;28;45096;-83
2023/06/15 08:01:12;;;;;;;9.18;4.45;;;24.80;38.40;;;;;;4887324;28;45442;-85
2023/06/15 08:03:37;;;;;;;5.32;4.20;;;24.90;38.50;;;;;;4903853;28;48438;-84
2023/06/15 08:06:03;;;;;;;8.45;4.10;;;25.00;38.30;;;;;;4915103;28;45341;-84
2023/06/15 08:08:28;;;;;;;6.57;4.40;;;25.00;38.30;;;;;;4916185;28;45211;-85
2023/06/15 08:10:54;;;;;;;6.75;4.00;;;25.00;38.20;;;;;;4901292;28;45125;-83
2023/06/15 08:13:20;;;;;;;5.95;4.18;;;25.10;38.20;;;;;;4927756;28;45121;-84
2023/06/15 08:15:46;;;;;;;6.88;4.35;;;25.10;38.10;;;;;;4908908;28;44907;-83
2023/06/15 08:18:12;;;;;;;6.20;4.22;;;25.20;38.00;;;;;;4904357;28;45188;-84
2023/06/15 08:20:37;;;;;;;6.00;3.92;;;25.20;37.80;;;;;;4897780;28;44761;-84
2023/06/15 08:23:03;;;;;;;4.03;3.60;;;25.30;37.70;;;;;;4907616;28;45423;-84
2023/06/15 08:25:28;;;;;;;4.15;3.60;;;25.30;37.60;;;;;;4890848;28;45847;-83
2023/06/15 08:27:54;;;;;;;6.53;4.10;;;25.40;37.50;;;;;;4926177;28;45303;-84
2023/06/15 08:30:20;;;;;;;4.93;3.80;;;25.40;37.50;;;;;;4915635;28;44820;-84
2023/06/15 08:32:48;;;;;;;5.07;3.95;;;25.40;37.40;;;;;;4921568;28;45271;-82
2023/06/15 08:35:14;;;;;;;5.80;3.67;;;25.40;37.40;;;;;;4915258;28;45265;-84
2023/06/15 08:37:39;;;;;;;5.22;4.50;;;25.40;37.30;;;;;;4906831;28;45450;-84
2023/06/15 08:40:07;;;;;;;4.10;3.70;;;25.50;37.20;;;;;;4903880;28;44887;-83
2023/06/15 08:42:34;;;;;;;5.78;3.83;;;25.50;37.30;;;;;;4911611;28;48241;-84
2023/06/15 08:44:59;;;;;;;3.75;3.33;;;25.50;37.20;;;;;;4907859;28;45305;-85
2023/06/15 08:47:26;;;;;;;4.88;3.97;;;25.50;37.20;;;;;;4908265;28;44708;-83
2023/06/15 08:49:52;;;;;;;5.18;3.70;;;25.50;37.20;;;;;;4886753;28;45282;-84
2023/06/15 08:52:20;;;;;;;5.78;3.50;;;25.50;37.00;;;;;;4913337;28;46376;-84
2023/06/15 08:54:46;;;;;;;7.80;3.55;;;25.60;37.00;;;;;;4923750;28;45374;-83
2023/06/15 08:57:12;;;;;;;6.43;3.88;;;25.60;37.00;;;;;;4921152;28;45054;-84
2023/06/15 08:59:37;;;;;;;5.75;3.70;;;25.60;36.90;;;;;;4901348;28;45135;-84
2023/06/15 09:02:04;;;;;;;3.22;2.92;;;25.70;37.00;;;;;;4877838;28;47252;-84
2023/06/15 09:04:30;;;;;;;5.13;3.95;;;25.70;36.90;;;;;;4914301;28;45612;-82
2023/06/15 09:06:59;;;;;;;4.38;3.42;;;25.70;36.70;;;;;;4917768;28;45221;-82
2023/06/15 09:09:25;;;;;;;5.15;3.25;;;25.70;36.70;;;;;;4923113;28;45102;-82
2023/06/15 09:11:50;;;;;;;4.40;3.63;;;25.70;36.70;;;;;;4884742;28;47119;-84
2023/06/15 09:14:16;;;;;;;4.25;3.15;;;25.80;36.50;;;;;;4901892;28;45324;-83
2023/06/15 09:16:41;;;;;;;4.35;2.78;;;25.80;36.10;;;;;;4892543;28;44830;-83
2023/06/15 09:19:11;;;;;;;6.15;3.80;;;25.80;36.00;;;;;;4926597;28;44750;-83
2023/06/15 09:21:42;;;;;;;5.53;2.85;;;25.80;36.10;;;;;;4915687;28;46328;-83
2023/06/15 09:24:08;;;;;;;7.15;3.38;;;25.90;35.90;;;;;;4909584;28;45427;-81
2023/06/15 09:26:33;;;;;;;5.82;3.55;;;25.90;35.60;;;;;;4916229;28;45199;-82
2023/06/15 09:29:03;;;;;;;4.38;3.50;;;25.90;35.70;;;;;;4931384;28;45128;-84
2023/06/15 09:31:32;;;;;;;6.85;3.70;;;25.90;35.70;;;;;;4909320;28;47003;-84
2023/06/15 09:34:02;;;;;;;4.13;3.63;;;25.90;35.70;;;;;;4941699;28;44615;-83
2023/06/15 09:36:36;;;;;;;4.53;3.55;;;26.00;35.60;;;;;;4912327;28;45433;-83
2023/06/15 09:39:05;;;;;;;6.43;3.67;;;26.00;35.20;;;;;;4931945;28;44674;-82
2023/06/15 09:41:34;;;;;;;5.30;3.17;;;26.00;35.00;;;;;;4923060;28;46933;-82
2023/06/15 09:44:02;;;;;;;5.18;3.40;;;26.00;35.20;;;;;;4918542;28;45356;-83
2023/06/15 09:46:28;;;;;;;5.47;3.30;;;26.10;35.10;;;;;;4905565;28;45609;-82
2023/06/15 09:48:53;;;;;;;3.65;3.33;;;26.10;35.20;;;;;;4893141;28;44782;-82
2023/06/15 09:51:20;;;;;;;4.13;3.33;;;26.10;35.10;;;;;;4919959;28;47111;-83
2023/06/15 09:53:46;;;;;;;3.88;3.22;;;26.10;34.80;;;;;;4928524;28;45238;-84
2023/06/15 09:56:12;;;;;;;4.57;3.35;;;26.10;34.80;;;;;;4885043;28;44736;-83
2023/06/15 09:58:37;;;;;;;5.97;3.42;;;26.10;34.80;;;;;;4925088;28;45227;-84
2023/06/15 10:01:06;;;;;;;5.18;3.60;;;26.10;34.80;;;;;;4907930;28;47110;-84
2023/06/15 10:03:32;;;;;;;6.70;3.25;;;26.20;35.10;;;;;;4920860;28;45087;-84
2023/06/15 10:06:00;;;;;;;4.10;3.17;;;26.20;34.50;;;;;;4854629;28;44788;-83
2023/06/15 10:08:26;;;;;;;4.43;3.30;;;26.20;34.40;;;;;;4922325;28;45466;-83
2023/06/15 10:10:53;;;;;;;4.32;3.47;;;26.20;34.30;;;;;;4903057;28;47191;-83
2023/06/15 10:13:22;;;;;;;3.80;3.05;;;26.20;34.10;;;;;;4910392;28;45172;-83
2023/06/15 10:15:52;;;;;;;3.50;2.85;;;26.30;34.10;;;;;;4892625;28;44732;-85
2023/06/15 10:18:20;;;;;;;5.57;3.00;;;26.30;33.90;;;;;;4907111;28;44858;-83
2023/06/15 10:20:48;;;;;;;3.78;2.70;;;26.30;33.90;;;;;;4907298;28;47348;-83
2023/06/15 10:23:14;;;;;;;3.55;3.17;;;26.30;34.30;;;;;;4890317;28;45267;-83
2023/06/15 10:25:43;;;;;;;3.72;2.90;;;26.40;34.10;;;;;;4899545;28;45487;-84
2023/06/15 10:28:13;;;;;;;4.10;2.75;;;26.40;33.50;;;;;;4911374;28;44905;-83
2023/06/15 10:31:16;;;;;;;3.20;2.90;;;26.50;33.50;;;;;;4909564;28;47489;-83
2023/06/15 10:33:47;;;;;;;2.65;2.45;;;26.50;32.60;;;;;;4913793;28;45230;-83
2023/06/15 10:36:25;;;;;;;3.80;2.58;;;26.50;32.90;;;;;;4868274;28;44769;-84
2023/06/15 10:39:03;;;;;;;4.13;2.53;;;26.60;32.80;;;;;;4922642;28;44940;-84
2023/06/15 10:41:29;;;;;;;3.13;2.63;;;26.60;32.40;;;;;;4915390;28;47066;-83
2023/06/15 10:44:03;;;;;;;3.30;2.88;;;26.60;32.70;;;;;;4895449;28;45374;-85
2023/06/15 10:46:30;;;;;;;6.20;2.97;;;26.60;32.30;;;;;;4870387;28;45426;-84
2023/06/15 10:49:05;;;;;;;3.72;3.17;;;26.60;33.00;;;;;;4910317;28;45339;-83
2023/06/15 10:51:35;;;;;;;3.45;3.15;;;26.60;32.80;;;;;;4911837;28;46682;-84
2023/06/15 10:54:02;;;;;;;5.43;2.80;;;26.60;33.10;;;;;;4899539;28;45543;-84
2023/06/15 10:56:28;;;;;;;5.25;3.17;;;26.70;33.00;;;;;;4910138;28;45176;-83
2023/06/15 10:58:54;;;;;;;3.53;2.70;;;26.70;32.70;;;;;;4911247;28;44697;-82
2023/06/15 11:01:32;;;;;;;3.05;2.75;;;26.70;32.20;;;;;;4885072;28;47184;-83
2023/06/15 11:03:58;;;;;;;5.00;2.97;;;26.70;31.70;;;;;;4908486;28;45268;-83
2023/06/15 11:06:30;;;;;;;3.17;2.60;;;26.70;32.30;;;;;;4896613;28;45527;-84
2023/06/15 11:09:04;;;;;;;3.83;2.83;;;26.70;32.10;;;;;;4915127;28;45278;-83
2023/06/15 11:11:33;;;;;;;2.72;2.38;;;26.80;32.20;;;;;;4896244;28;48104;-83
2023/06/15 11:14:05;;;;;;;3.42;2.65;;;26.80;32.10;;;;;;4921151;28;45643;-84
2023/06/15 11:16:35;;;;;;;3.07;2.60;;;26.90;31.80;;;;;;4903591;28;45317;-83
2023/06/15 11:19:10;;;;;;;4.22;2.58;;;26.90;32.10;;;;;;4901687;28;45375;-83
2023/06/15 11:21:37;;;;;;;2.72;2.45;;;26.90;31.90;;;;;;4930399;28;46304;-83
2023/06/15 11:24:02;;;;;;;4.53;2.65;;;26.90;31.80;;;;;;4873688;28;45179;-84
2023/06/15 11:26:28;;;;;;;2.60;2.40;;;27.00;31.70;;;;;;4913043;28;45542;-83
2023/06/15 11:28:57;;;;;;;2.88;2.58;;;27.00;31.60;;;;;;4907699;28;45209;-83
2023/06/15 11:31:23;;;;;;;3.45;2.70;;;27.00;31.60;;;;;;4905356;28;47092;-82
2023/06/15 11:33:49;;;;;;;2.92;2.42;;;27.00;31.50;;;;;;4868086;28;45312;-82
2023/06/15 11:36:14;;;;;;;5.70;3.00;;;27.00;31.50;;;;;;4867164;28;45193;-83
2023/06/15 11:38:40;;;;;;;3.08;2.25;;;27.00;31.30;;;;;;4900117;28;45142;-83
2023/06/15 11:41:07;;;;;;;3.70;2.42;;;27.00;31.40;;;;;;4891675;28;47127;-83
2023/06/15 11:43:35;;;;;;;2.90;2.58;;;27.00;31.40;;;;;;4906160;28;46097;-82
2023/06/15 11:46:00;;;;;;;4.43;2.65;;;27.00;31.30;;;;;;4868854;28;45508;-82
2023/06/15 11:48:26;;;;;;;2.80;2.45;;;27.00;31.20;;;;;;4934010;28;45336;-83
2023/06/15 11:50:52;;;;;;;2.75;2.30;;;27.00;31.30;;;;;;4876407;28;46937;-82
2023/06/15 11:53:18;;;;;;;3.03;2.42;;;27.00;31.30;;;;;;4889011;28;45617;-82
2023/06/15 11:55:44;;;;;;;3.25;2.50;;;27.00;31.30;;;;;;4909447;28;45278;-82
2023/06/15 11:58:10;;;;;;;3.40;2.45;;;27.10;31.50;;;;;;4904102;28;45232;-83
2023/06/15 12:00:35;;;;;;;2.63;2.33;;;27.00;31.40;;;;;;4890525;28;46891;-83
2023/06/15 12:03:08;;;;;;;2.50;2.20;;;27.10;31.50;;;;;;4911440;28;45970;-81
2023/06/15 12:05:33;;;;;;;2.60;2.40;;;27.10;31.20;;;;;;4908681;28;45482;-83
2023/06/15 12:07:59;;;;;;;2.60;2.40;;;27.10;31.30;;;;;;4865480;28;45348;-83
2023/06/15 12:10:25;;;;;;;3.38;2.60;;;27.20;31.10;;;;;;4882557;28;48432;-83
2023/06/15 12:12:51;;;;;;;4.10;2.30;;;27.20;31.00;;;;;;4904241;28;45516;-83
2023/06/15 12:15:17;;;;;;;4.20;2.42;;;27.20;31.00;;;;;;4878274;28;44962;-82
2023/06/15 12:17:42;;;;;;;2.67;2.08;;;27.30;31.10;;;;;;4896009;28;45605;-82
2023/06/15 12:20:13;;;;;;;3.67;2.53;;;27.30;31.20;;;;;;4900588;28;48292;-83
2023/06/15 12:22:43;;;;;;;4.57;2.40;;;27.30;31.30;;;;;;4919159;28;45050;-82
2023/06/15 12:25:09;;;;;;;2.75;2.40;;;27.30;31.20;;;;;;4912322;28;44935;-82
2023/06/15 12:27:47;;;;;;;3.53;2.58;;;27.30;31.30;;;;;;4886138;28;45275;-83
2023/06/15 12:30:15;;;;;;;3.00;2.50;;;27.30;31.10;;;;;;4875048;28;47382;-82
2023/06/15 12:32:50;;;;;;;2.45;2.25;;;27.40;31.20;;;;;;4867830;28;45363;-83
2023/06/15 12:35:38;;;;;;;3.03;2.45;;;27.40;30.70;;;;;;4856389;28;45038;-84
2023/06/15 12:38:07;;;;;;;2.40;2.20;;;27.40;30.70;;;;;;4893249;28;44899;-82
2023/06/15 12:40:38;;;;;;;2.42;2.20;;;27.40;31.40;;;;;;4910007;28;47065;-82
2023/06/15 12:43:04;;;;;;;2.85;2.38;;;27.50;31.30;;;;;;4904463;28;45214;-82
2023/06/15 12:45:29;;;;;;;2.55;2.25;;;27.40;31.60;;;;;;4891166;28;45501;-83
2023/06/15 12:47:56;;;;;;;3.70;2.03;;;27.50;31.40;;;;;;4897401;28;45773;-84
2023/06/15 12:50:22;;;;;;;2.92;2.40;;;27.50;31.10;;;;;;4906102;28;46679;-82
2023/06/15 12:52:47;;;;;;;2.60;2.40;;;27.50;31.80;;;;;;4903702;28;45459;-82
2023/06/15 12:55:13;;;;;;;2.53;2.30;;;27.50;31.00;;;;;;4894272;28;45213;-82
2023/06/15 12:57:38;;;;;;;2.95;2.50;;;27.50;31.00;;;;;;4918666;28;45454;-83
2023/06/15 13:00:05;;;;;;;2.67;2.47;;;27.50;31.00;;;;;;4899176;28;47137;-82
2023/06/15 13:02:32;;;;;;;3.17;2.53;;;27.60;31.00;;;;;;4906694;28;45526;-83
2023/06/15 13:05:02;;;;;;;2.25;1.88;;;27.60;30.90;;;;;;4930715;28;44750;-82
2023/06/15 13:07:31;;;;;;;2.40;2.20;;;27.60;31.10;;;;;;4895445;28;45811;-82
2023/06/15 13:09:57;;;;;;;;;;;27.60;31.00;;;;;;4904958;28;45436;-82
2023/06/15 13:12:22;;;;;;;2.10;1.90;;;27.60;30.80;;;;;;4912854;28;45562;-82
2023/06/15 13:14:48;;;;;;;2.72;2.20;;;27.60;31.20;;;;;;4936352;28;45146;-81
2023/06/15 13:17:13;;;;;;;4.68;2.40;;;27.60;31.00;;;;;;4881352;28;45510;-83
2023/06/15 13:19:39;;;;;;;5.22;2.50;;;27.60;31.10;;;;;;4903762;28;46176;-82
2023/06/15 13:22:05;;;;;;;5.68;2.53;;;27.70;31.20;;;;;;4908859;28;45204;-83
2023/06/15 13:24:31;;;;;;;2.88;2.33;;;27.60;31.10;;;;;;4921914;28;45483;-84
2023/06/15 13:26:58;;;;;;;2.70;2.22;;;27.70;31.30;;;;;;4909755;28;45060;-83
2023/06/15 13:29:23;;;;;;;2.13;1.88;;;27.70;31.40;;;;;;4902417;28;46197;-83
2023/06/15 13:31:49;;;;;;;2.85;2.40;;;27.60;31.50;;;;;;4886234;28;45134;-83
2023/06/15 13:34:14;;;;;;;3.10;2.55;;;27.60;31.70;;;;;;4901929;28;45275;-83
2023/06/15 13:36:41;;;;;;;3.42;2.33;;;27.60;31.90;;;;;;4908995;28;45158;-82
2023/06/15 13:39:07;;;;;;;4.05;2.20;;;27.60;32.00;;;;;;4918601;28;46320;-82
2023/06/15 13:41:32;;;;;;;4.15;2.45;;;27.60;32.10;;;;;;4909270;28;45196;-82
2023/06/15 13:43:59;;;;;;;3.30;2.28;;;27.60;32.10;;;;;;4886565;28;44996;-83
2023/06/15 13:46:25;;;;;;;3.97;2.13;;;27.60;32.20;;;;;;4902342;28;45197;-82
2023/06/15 13:48:51;;;;;;;4.35;2.35;;;27.50;32.40;;;;;;4912192;28;47288;-84
2023/06/15 13:51:17;;;;;;;3.20;2.17;;;27.50;32.60;;;;;;4855677;28;45171;-81
2023/06/15 13:53:42;;;;;;;3.20;2.30;;;27.50;32.80;;;;;;4920062;28;45307;-83
2023/06/15 13:56:08;;;;;;;7.20;2.40;;;27.50;32.80;;;;;;4898006;28;45663;-83
2023/06/15 13:58:33;;;;;;;7.32;2.60;;;27.50;32.80;;;;;;4888606;28;48061;-83
2023/06/15 14:00:59;;;;;;;4.53;2.30;;;27.50;32.90;;;;;;4895758;28;45498;-82
2023/06/15 14:03:24;;;;;;;2.85;2.10;;;27.50;32.90;;;;;;4914796;28;44897;-82
2023/06/15 14:05:50;;;;;;;4.90;2.42;;;27.50;33.00;;;;;;4904849;28;45733;-84
2023/06/15 14:08:15;;;;;;;2.63;2.00;;;27.40;32.90;;;;;;4922993;28;47161;-82
2023/06/15 14:10:41;;;;;;;3.88;1.85;;;27.50;33.10;;;;;;4907350;28;44703;-83
2023/06/15 14:13:07;;;;;;;5.93;2.20;;;27.50;33.00;;;;;;4901486;28;45489;-83
2023/06/15 14:15:33;;;;;;;3.83;2.15;;;27.50;32.90;;;;;;4886588;28;45433;-82
2023/06/15 14:17:58;;;;;;;4.60;2.28;;;27.50;32.90;;;;;;4900710;28;47273;-82
2023/06/15 14:20:24;;;;;;;7.00;2.20;;;27.40;32.90;;;;;;4905959;28;45145;-82
2023/06/15 14:22:50;;;;;;;4.13;2.47;;;27.40;33.00;;;;;;4917322;28;45678;-82
2023/06/15 14:25:15;;;;;;;4.43;2.30;;;27.40;33.10;;;;;;4893035;28;45139;-81
2023/06/15 14:27:45;;;;;;;4.38;2.15;;;27.40;33.10;;;;;;4897434;28;46934;-83
2023/06/15 14:30:12;;;;;;;4.07;2.42;;;27.40;33.00;;;;;;4894811;28;44928;-84
2023/06/15 14:32:38;;;;;;;2.60;2.20;;;27.40;33.00;;;;;;4896220;28;45097;-82
2023/06/15 14:35:04;;;;;;;5.50;2.00;;;27.40;33.00;;;;;;4913648;28;45307;-82
2023/06/15 14:37:32;;;;;;;4.00;2.25;;;27.40;32.90;;;;;;4892387;28;46633;-82
2023/06/15 14:39:57;;;;;;;6.32;2.58;;;27.40;32.90;;;;;;4899746;28;45384;-83
2023/06/15 14:42:24;;;;;;;5.38;2.38;;;27.40;32.90;;;;;;4908436;28;45235;-82
2023/06/15 14:44:50;;;;;;;3.15;2.42;;;27.40;32.90;;;;;;4918679;28;44975;-83
2023/06/15 14:47:17;;;;;;;4.07;2.38;;;27.40;33.00;;;;;;4852611;28;47291;-83
2023/06/15 14:49:45;;;;;;;2.30;2.10;;;27.40;32.90;;;;;;4900992;28;45448;-83
2023/06/15 14:52:10;;;;;;;4.45;1.75;;;27.40;32.90;;;;;;4884187;28;44750;-83
2023/06/15 14:54:40;;;;;;;4.00;2.38;;;27.40;33.00;;;;;;4881649;28;45241;-83
2023/06/15 14:57:07;;;;;;;2.35;2.13;;;27.40;33.10;;;;;;4892251;28;47371;-83
2023/06/15 14:59:32;;;;;;;3.63;2.03;;;27.40;33.00;;;;;;4917789;28;45662;-83
2023/06/15 15:01:58;;;;;;;3.22;2.17;;;27.40;33.20;;;;;;4865125;28;45354;-82
2023/06/15 15:04:23;;;;;;;3.05;2.28;;;27.40;33.20;;;;;;4879312;28;45098;-83
2023/06/15 15:06:50;;;;;;;5.40;2.40;;;27.40;33.20;;;;;;4888226;28;48348;-84
2023/06/15 15:09:16;;;;;;;2.58;2.22;;;27.40;33.20;;;;;;4912434;28;45192;-83
2023/06/15 15:11:42;;;;;;;5.35;2.40;;;27.40;33.30;;;;;;4865013;28;45644;-82
2023/06/15 15:14:08;;;;;;;2.03;1.83;;;27.40;33.20;;;;;;4921510;28;45539;-83
2023/06/15 15:16:33;;;;;;;3.92;2.30;;;27.30;33.20;;;;;;4894245;28;47451;-83
2023/06/15 15:18:59;;;;;;;4.35;1.90;;;27.40;33.30;;;;;;4911963;28;45240;-84
2023/06/15 15:21:26;;;;;;;3.22;2.30;;;27.30;33.10;;;;;;4905989;28;45022;-83
2023/06/15 15:23:52;;;;;;;2.33;2.13;;;27.30;33.00;;;;;;4895623;28;45902;-83
2023/06/15 15:26:17;;;;;;;4.00;2.42;;;27.30;33.00;;;;;;4872096;28;46961;-83
2023/06/15 15:28:43;;;;;;;3.10;2.20;;;27.30;32.70;;;;;;4892179;28;44984;-84
2023/06/15 15:31:09;;;;;;;3.35;2.47;;;27.30;32.70;;;;;;4868289;28;44685;-83
2023/06/15 15:33:34;;;;;;;2.40;2.20;;;27.30;32.60;;;;;;4865458;28;45148;-83
2023/06/15 15:36:00;;;;;;;2.83;2.15;;;27.30;32.50;;;;;;4887505;28;47032;-83
2023/06/15 15:38:26;;;;;;;3.95;2.40;;;27.30;32.40;;;;;;4913448;28;45267;-82
2023/06/15 15:40:51;;;;;;;3.42;2.03;;;27.30;32.40;;;;;;4906260;28;45519;-83
2023/06/15 15:43:17;;;;;;;4.68;2.60;;;27.30;32.60;;;;;;4924976;28;45163;-83
2023/06/15 15:45:43;;;;;;;4.22;2.15;;;27.40;32.50;;;;;;4890695;28;46827;-82